createdAt,value
2023-01-05T00:01:51.018Z,7.43
2023-01-05T00:04:18.852Z,7.42
2023-01-05T00:06:46.218Z,7.43
2023-01-05T00:09:15.610Z,7.47
2023-01-05T00:12:01.689Z,7.47
2023-01-05T00:14:49.313Z,7.48
2023-01-05T00:17:38.639Z,7.48
2023-01-05T00:20:31.284Z,7.49
2023-01-05T00:22:59.963Z,7.51
2023-01-05T00:25:30.232Z,7.53
2023-01-05T00:27:59.392Z,7.55
2023-01-05T00:30:29.175Z,7.55
2023-01-05T00:32:56.731Z,7.56
2023-01-05T00:35:24.865Z,7.57
2023-01-05T00:37:52.897Z,7.58
2023-01-05T00:40:22.223Z,7.58
2023-01-05T00:42:49.562Z,7.60
2023-01-05T00:45:18.695Z,7.61
2023-01-05T00:47:46.232Z,7.61
2023-01-05T00:50:15.506Z,7.61
2023-01-05T00:52:48.386Z,7.61
2023-01-05T00:55:16.397Z,7.61
2023-01-05T00:57:46.012Z,7.61
2023-01-05T01:00:15.990Z,7.59
2023-01-05T01:02:44.207Z,7.57
2023-01-05T01:05:11.812Z,7.57
2023-01-05T01:07:39.224Z,7.57
2023-01-05T01:10:07.351Z,7.57
2023-01-05T01:12:35.560Z,7.55
2023-01-05T01:15:06.460Z,7.55
2023-01-05T01:17:34.084Z,7.54
2023-01-05T01:20:02.206Z,7.52
2023-01-05T01:22:29.945Z,7.51
2023-01-05T01:24:58.623Z,7.51
2023-01-05T01:27:26.748Z,7.49
2023-01-05T01:29:54.836Z,7.48
2023-01-05T01:32:24.146Z,7.48
2023-01-05T01:34:54.936Z,7.46
2023-01-05T01:37:26.086Z,7.44
2023-01-05T01:39:56.060Z,7.43
2023-01-05T01:42:25.936Z,7.43
2023-01-05T01:45:17.070Z,7.44
2023-01-05T01:47:51.166Z,7.42
2023-01-05T01:50:24.520Z,7.41
2023-01-05T01:52:58.720Z,7.40
2023-01-05T01:55:28.782Z,7.40
2023-01-05T01:57:58.894Z,7.39
2023-01-05T02:00:26.460Z,7.37
2023-01-05T02:02:56.217Z,7.35
2023-01-05T02:05:29.534Z,7.33
2023-01-05T02:07:59.921Z,7.32
2023-01-05T02:10:56.325Z,7.31
2023-01-05T02:13:31.196Z,7.30
2023-01-05T02:16:02.935Z,7.29
2023-01-05T02:18:36.405Z,7.26
2023-01-05T02:21:16.977Z,7.26
2023-01-05T02:24:02.351Z,7.26
2023-01-05T02:26:30.481Z,7.26
2023-01-05T02:29:13.886Z,7.27
2023-01-05T02:31:57.319Z,7.28
2023-01-05T02:34:40.918Z,7.30
2023-01-05T02:37:15.476Z,7.31
2023-01-05T02:39:51.023Z,7.30
2023-01-05T02:42:27.124Z,7.30
2023-01-05T02:44:55.124Z,7.31
2023-01-05T02:47:25.147Z,7.31
2023-01-05T02:50:05.692Z,7.33
2023-01-05T02:52:39.416Z,7.34
2023-01-05T02:55:10.765Z,7.35
2023-01-05T02:57:47.184Z,7.36
2023-01-05T03:00:21.879Z,7.36
2023-01-05T03:02:53.731Z,7.37
2023-01-05T03:05:41.895Z,7.37
2023-01-05T03:08:23.262Z,7.37
2023-01-05T03:11:18.443Z,7.38
2023-01-05T03:13:49.796Z,7.38
2023-01-05T03:16:22.517Z,7.38
2023-01-05T03:19:11.220Z,7.37
2023-01-05T03:21:57.976Z,7.39
2023-01-05T03:24:44.571Z,7.40
2023-01-05T03:27:32.777Z,7.39
2023-01-05T03:30:19.448Z,7.39
2023-01-05T03:33:09.215Z,7.39
2023-01-05T03:35:41.571Z,7.37
2023-01-05T03:38:21.164Z,7.36
2023-01-05T03:40:53.717Z,7.34
2023-01-05T03:43:21.492Z,7.32
2023-01-05T03:45:54.479Z,7.31
2023-01-05T03:48:25.031Z,7.30
2023-01-05T03:50:52.732Z,7.28
2023-01-05T03:53:21.165Z,7.28
2023-01-05T03:55:49.552Z,7.25
2023-01-05T03:58:17.396Z,7.23
2023-01-05T04:00:47.591Z,7.22
2023-01-05T04:03:15.471Z,7.21
2023-01-05T04:05:44.119Z,7.19
2023-01-05T04:08:12.337Z,7.19
2023-01-05T04:10:39.816Z,7.18
2023-01-05T04:13:07.943Z,7.20
2023-01-05T04:15:36.016Z,7.21
2023-01-05T04:18:04.418Z,7.21
2023-01-05T04:20:33.343Z,7.23
2023-01-05T04:23:01.629Z,7.25
2023-01-05T04:25:30.704Z,7.25
2023-01-05T04:28:04.777Z,7.27
2023-01-05T04:30:34.086Z,7.30
2023-01-05T04:33:02.430Z,7.31
2023-01-05T04:35:31.448Z,7.33
2023-01-05T04:37:58.862Z,7.34
2023-01-05T04:40:28.015Z,7.36
2023-01-05T04:42:56.495Z,7.38
2023-01-05T04:45:26.720Z,7.38
2023-01-05T04:47:57.070Z,7.40
2023-01-05T04:50:26.785Z,7.43
2023-01-05T04:52:54.981Z,7.46
2023-01-05T04:55:24.580Z,7.47
2023-01-05T04:57:52.048Z,7.48
2023-01-05T05:00:20.551Z,7.50
2023-01-05T05:02:50.758Z,7.54
2023-01-05T05:05:18.207Z,7.58
2023-01-05T05:07:50.818Z,7.59
2023-01-05T05:10:18.881Z,7.60
2023-01-05T05:12:47.471Z,7.61
2023-01-05T05:15:14.882Z,7.61
2023-01-05T05:17:45.702Z,7.62
2023-01-05T05:20:16.659Z,7.62
2023-01-05T05:22:44.461Z,7.62
2023-01-05T05:25:13.914Z,7.65
2023-01-05T05:27:43.951Z,7.65
2023-01-05T05:30:12.606Z,7.65
2023-01-05T05:32:44.138Z,7.65
2023-01-05T05:35:12.329Z,7.65
2023-01-05T05:37:40.197Z,7.65
2023-01-05T05:40:07.906Z,7.65
2023-01-05T05:42:35.802Z,7.65
2023-01-05T05:45:03.972Z,7.64
2023-01-05T05:47:31.661Z,7.63
2023-01-05T05:49:58.971Z,7.62
2023-01-05T05:52:26.366Z,7.61
2023-01-05T05:54:54.507Z,7.61
2023-01-05T05:57:23.694Z,7.60
2023-01-05T05:59:51.800Z,7.60
2023-01-05T06:02:19.625Z,7.59
2023-01-05T06:04:48.763Z,7.60
2023-01-05T06:07:16.222Z,7.61
2023-01-05T06:09:45.992Z,7.62
2023-01-05T06:12:15.457Z,7.61
2023-01-05T06:14:44.994Z,7.61
2023-01-05T06:17:13.012Z,7.62
2023-01-05T06:19:42.063Z,7.61
2023-01-05T06:22:09.379Z,7.59
2023-01-05T06:24:37.386Z,7.59
2023-01-05T06:27:04.781Z,7.59
2023-01-05T06:29:32.182Z,7.61
2023-01-05T06:32:00.823Z,7.61
2023-01-05T06:34:28.373Z,7.62
2023-01-05T06:37:01.904Z,7.61
2023-01-05T06:39:29.739Z,7.62
2023-01-05T06:41:57.167Z,7.63
2023-01-05T06:44:26.725Z,7.60
2023-01-05T06:46:54.200Z,7.61
2023-01-05T06:49:21.611Z,7.61
2023-01-05T06:51:50.750Z,7.64
2023-01-05T06:54:19.227Z,7.64
2023-01-05T06:56:47.112Z,7.60
2023-01-05T06:59:14.757Z,7.64
2023-01-05T07:01:42.280Z,7.66
2023-01-05T07:04:09.980Z,7.70
2023-01-05T07:06:37.662Z,7.67
2023-01-05T07:09:05.161Z,7.65
2023-01-05T07:11:32.627Z,7.64
2023-01-05T07:14:02.524Z,7.66
2023-01-05T07:16:30.101Z,7.61
2023-01-05T07:18:57.607Z,7.57
2023-01-05T07:21:25.154Z,7.50
2023-01-05T07:23:52.544Z,7.44
2023-01-05T07:26:19.938Z,7.40
2023-01-05T07:28:47.375Z,7.35
2023-01-05T07:31:15.325Z,7.34
2023-01-05T07:33:42.845Z,7.38
2023-01-05T07:36:10.336Z,7.45
2023-01-05T07:38:39.192Z,7.51
2023-01-05T07:41:07.974Z,7.52
2023-01-05T07:43:35.511Z,7.45
2023-01-05T07:46:04.154Z,7.38
2023-01-05T07:48:33.488Z,7.41
2023-01-05T07:51:02.020Z,7.42
2023-01-05T07:53:30.505Z,7.41
2023-01-05T07:56:00.666Z,7.34
2023-01-05T07:58:30.071Z,7.35
2023-01-05T08:01:04.576Z,7.45
2023-01-05T08:03:32.253Z,7.49
2023-01-05T08:06:03.612Z,7.51
2023-01-05T08:08:31.069Z,7.55
2023-01-05T08:11:00.975Z,7.62
2023-01-05T08:13:47.965Z,7.74
2023-01-05T08:16:16.911Z,7.75
2023-01-05T08:18:45.197Z,7.68
2023-01-05T08:21:12.971Z,7.72
2023-01-05T08:23:40.564Z,7.68
2023-01-05T08:26:12.186Z,7.58
2023-01-05T08:28:40.575Z,7.49
2023-01-05T08:31:10.574Z,7.57
2023-01-05T08:33:38.128Z,7.52
2023-01-05T08:36:08.043Z,7.40
2023-01-05T08:38:35.842Z,7.41
2023-01-05T08:41:04.444Z,7.39
2023-01-05T08:43:32.997Z,7.36
2023-01-05T08:46:00.671Z,7.40
2023-01-05T08:48:29.301Z,7.50
2023-01-05T08:51:03.360Z,7.64
2023-01-05T08:53:57.220Z,7.72
2023-01-05T08:56:33.123Z,7.64
2023-01-05T08:59:05.570Z,7.58
2023-01-05T09:01:36.951Z,7.61
2023-01-05T09:04:04.954Z,7.62
2023-01-05T09:06:32.511Z,7.63
2023-01-05T09:09:00.151Z,7.77
2023-01-05T09:11:29.586Z,7.86
2023-01-05T09:14:00.283Z,7.93
2023-01-05T09:16:57.302Z,8.00
2023-01-05T09:19:17.201Z,8.03
2023-01-05T09:21:45.091Z,8.09
2023-01-05T09:24:12.988Z,8.21
2023-01-05T09:26:42.565Z,8.16
2023-01-05T09:29:12.092Z,8.18
2023-01-05T09:31:43.608Z,8.16
2023-01-05T09:34:11.428Z,8.16
2023-01-05T09:36:39.287Z,8.09
2023-01-05T09:39:08.071Z,7.98
2023-01-05T09:41:47.061Z,8.01
2023-01-05T09:44:28.456Z,8.04
2023-01-05T09:47:00.471Z,8.00
2023-01-05T09:49:29.304Z,7.89
2023-01-05T09:52:01.751Z,7.79
2023-01-05T09:54:53.812Z,7.68
2023-01-05T09:57:26.774Z,7.66
2023-01-05T10:00:01.080Z,7.63
2023-01-05T10:02:46.980Z,7.62
2023-01-05T10:05:15.511Z,7.59
2023-01-05T10:07:53.416Z,7.60
2023-01-05T10:10:28.107Z,7.57
2023-01-05T10:13:02.741Z,7.58
2023-01-05T10:15:33.267Z,7.56
2023-01-05T10:18:08.608Z,7.50
2023-01-05T10:21:08.518Z,7.43
2023-01-05T10:23:47.855Z,7.36
2023-01-05T10:26:51.351Z,7.30
2023-01-05T10:29:26.899Z,7.25
2023-01-05T10:32:14.439Z,7.22
2023-01-05T10:34:45.587Z,7.21
2023-01-05T10:37:34.270Z,7.16
2023-01-05T10:40:09.174Z,7.16
2023-01-05T10:42:45.405Z,7.17
2023-01-05T10:45:15.403Z,7.13
2023-01-05T10:47:45.857Z,7.15
2023-01-05T10:50:19.714Z,7.13
2023-01-05T10:52:47.698Z,7.10
2023-01-05T10:55:17.992Z,7.13
2023-01-05T10:57:46.360Z,7.10
2023-01-05T11:00:20.355Z,7.11
2023-01-05T11:02:50.606Z,7.08
2023-01-05T11:05:23.288Z,7.09
2023-01-05T11:07:52.858Z,7.07
2023-01-05T11:10:25.959Z,7.07
2023-01-05T11:13:01.935Z,7.03
2023-01-05T11:15:32.003Z,7.01
2023-01-05T11:18:00.545Z,7.00
2023-01-05T11:20:29.232Z,6.98
2023-01-05T11:22:58.780Z,6.97
2023-01-05T11:25:30.527Z,6.96
2023-01-05T11:28:07.059Z,6.97
2023-01-05T11:30:37.571Z,6.99
2023-01-05T11:35:50.556Z,7.09
2023-01-05T11:38:26.553Z,7.09
2023-01-05T11:40:55.993Z,7.12
2023-01-05T11:43:25.823Z,7.15
2023-01-05T11:45:58.922Z,7.14
2023-01-05T11:48:28.536Z,7.12
2023-01-05T11:50:57.312Z,7.13
2023-01-05T11:53:35.778Z,7.13
2023-01-05T11:56:03.291Z,7.13
2023-01-05T11:58:51.571Z,7.13
2023-01-05T12:01:28.330Z,7.14
2023-01-05T12:04:14.375Z,7.16
2023-01-05T12:07:00.577Z,7.18
2023-01-05T12:09:36.111Z,7.23
2023-01-05T12:12:07.186Z,7.25
2023-01-05T12:14:44.456Z,7.24
2023-01-05T12:17:16.524Z,7.29
2023-01-05T12:19:43.936Z,7.32
2023-01-05T12:22:30.630Z,7.28
2023-01-05T12:24:58.222Z,7.23
2023-01-05T12:27:28.340Z,7.26
2023-01-05T12:36:06.341Z,7.15
2023-01-05T12:38:48.904Z,7.09
2023-01-05T12:41:21.232Z,7.07
2023-01-05T12:44:27.870Z,7.04
2023-01-05T12:47:00.894Z,7.06
2023-01-05T12:49:37.829Z,7.06
2023-01-05T12:52:29.056Z,7.05
2023-01-05T12:55:01.843Z,7.05
2023-01-05T12:57:34.463Z,7.07
2023-01-05T13:00:02.343Z,7.08
2023-01-05T13:02:30.703Z,7.06
2023-01-05T13:05:19.574Z,7.06
2023-01-05T13:07:51.211Z,7.15
2023-01-05T13:10:25.503Z,7.11
2023-01-05T13:12:56.762Z,7.14
2023-01-05T13:15:28.194Z,7.14
2023-01-05T13:17:56.911Z,7.16
2023-01-05T13:20:31.038Z,7.15
2023-01-05T13:23:01.973Z,7.09
2023-01-05T13:25:33.053Z,7.07
2023-01-05T13:30:45.133Z,7.00
2023-01-05T13:33:18.533Z,7.01
2023-01-05T13:36:12.188Z,7.06
2023-01-05T13:38:40.033Z,7.09
2023-01-05T13:41:18.682Z,7.07
2023-01-05T13:44:04.408Z,7.03
2023-01-05T13:46:50.394Z,7.04
2023-01-05T13:49:35.879Z,7.12
2023-01-05T13:52:18.732Z,7.15
2023-01-05T13:55:00.857Z,7.18
2023-01-05T13:57:36.390Z,7.20
2023-01-05T14:00:10.220Z,7.30
2023-01-05T14:02:43.380Z,7.33
2023-01-05T14:05:24.132Z,7.32
2023-01-05T14:07:54.073Z,7.31
2023-01-05T14:10:25.047Z,7.35
2023-01-05T14:12:56.382Z,7.39
2023-01-05T14:15:43.105Z,7.42
2023-01-05T14:18:13.307Z,7.49
2023-01-05T14:20:46.224Z,7.57
2023-01-05T14:23:22.834Z,7.58
2023-01-05T14:25:55.173Z,7.52
2023-01-05T14:28:40.588Z,7.49
2023-01-05T14:31:08.054Z,7.51
2023-01-05T14:34:07.050Z,7.50
2023-01-05T14:36:36.624Z,7.53
2023-01-05T14:39:20.158Z,7.54
2023-01-05T14:42:05.867Z,7.47
2023-01-05T14:44:35.780Z,7.40
2023-01-05T14:47:04.806Z,7.36
2023-01-05T14:49:36.619Z,7.38
2023-01-05T14:52:06.854Z,7.36
2023-01-05T14:58:14.417Z,7.22
2023-01-05T15:00:47.949Z,7.21
2023-01-05T15:03:20.081Z,7.15
2023-01-05T15:05:53.481Z,7.12
2023-01-05T15:08:32.519Z,7.06
2023-01-05T15:11:18.079Z,7.02
2023-01-05T15:14:11.083Z,6.95
2023-01-05T15:16:48.591Z,7.00
2023-01-05T15:19:23.275Z,6.98
2023-01-05T15:22:08.079Z,6.97
2023-01-05T15:25:01.503Z,6.96
2023-01-05T15:27:40.916Z,6.97
2023-01-05T15:30:25.202Z,6.97
2023-01-05T15:33:04.326Z,7.01
2023-01-05T15:35:43.207Z,6.89
2023-01-05T15:38:20.878Z,6.83
2023-01-05T15:40:49.952Z,6.91
2023-01-05T15:43:18.790Z,7.00
2023-01-05T15:45:49.815Z,6.99
2023-01-05T15:48:29.012Z,7.02
2023-01-05T15:50:58.426Z,6.97
2023-01-05T15:53:32.754Z,6.97
2023-01-05T15:56:00.960Z,7.01
2023-01-05T15:58:30.109Z,6.95
2023-01-05T16:01:10.292Z,6.93
2023-01-05T16:03:39.187Z,6.93
2023-01-05T16:06:10.515Z,7.01
2023-01-05T16:08:49.792Z,7.06
2023-01-05T16:11:36.164Z,7.02
2023-01-05T16:14:11.018Z,6.95
2023-01-05T16:16:57.412Z,6.99
2023-01-05T16:19:32.774Z,6.99
2023-01-05T16:22:04.304Z,7.02
2023-01-05T16:24:55.841Z,7.03
2023-01-05T16:27:23.915Z,7.05
2023-01-05T16:29:51.668Z,7.02
2023-01-05T16:32:33.054Z,6.96
2023-01-05T16:35:27.065Z,6.91
2023-01-05T16:38:02.307Z,6.87
2023-01-05T16:40:30.996Z,6.81
2023-01-05T16:42:58.852Z,6.78
2023-01-05T16:45:29.505Z,6.71
2023-01-05T16:47:57.174Z,6.72
2023-01-05T16:50:37.712Z,6.67
2023-01-05T16:53:14.174Z,6.67
2023-01-05T16:55:42.826Z,6.58
2023-01-05T16:58:29.104Z,6.52
2023-01-05T17:01:23.954Z,6.52
2023-01-05T17:03:52.296Z,6.51
2023-01-05T17:06:22.639Z,6.45
2023-01-05T17:08:50.899Z,6.39
2023-01-05T17:11:18.354Z,6.37
2023-01-05T17:13:52.160Z,6.37
2023-01-05T17:16:21.999Z,6.37
2023-01-05T17:18:51.441Z,6.34
2023-01-05T17:21:21.865Z,6.33
2023-01-05T17:23:52.797Z,6.28
2023-01-05T17:26:26.611Z,6.26
2023-01-05T17:28:56.799Z,6.23
2023-01-05T17:31:25.415Z,6.19
2023-01-05T17:33:55.393Z,6.11
2023-01-05T17:36:26.456Z,6.06
2023-01-05T17:38:54.749Z,6.01
2023-01-05T17:41:22.480Z,5.97
2023-01-05T17:43:50.775Z,5.96
2023-01-05T17:46:32.024Z,5.91
2023-01-05T17:49:00.506Z,5.86
2023-01-05T17:51:30.224Z,5.89
2023-01-05T17:53:59.818Z,5.90
2023-01-05T17:56:28.436Z,5.89
2023-01-05T17:58:57.090Z,5.87
2023-01-05T18:01:25.626Z,5.81
2023-01-05T18:03:53.127Z,5.78
2023-01-05T18:06:22.649Z,5.76
2023-01-05T18:08:52.392Z,5.77
2023-01-05T18:11:20.751Z,5.68
2023-01-05T18:13:48.754Z,5.69
2023-01-05T18:16:17.437Z,5.68
2023-01-05T18:18:45.397Z,5.68
2023-01-05T18:21:13.107Z,5.65
2023-01-05T18:23:41.300Z,5.60
2023-01-05T18:26:09.818Z,5.62
2023-01-05T18:28:38.205Z,5.61
2023-01-05T18:31:10.759Z,5.64
2023-01-05T18:33:39.829Z,5.68
2023-01-05T18:36:11.712Z,5.66
2023-01-05T18:38:41.643Z,5.60
2023-01-05T18:41:09.978Z,5.57
2023-01-05T18:43:37.993Z,5.49
2023-01-05T18:46:06.676Z,5.48
2023-01-05T18:48:35.161Z,5.49
2023-01-05T18:51:08.181Z,5.43
2023-01-05T18:53:39.826Z,5.33
2023-01-05T18:56:09.040Z,5.30
2023-01-05T18:58:37.808Z,5.37
2023-01-05T19:01:09.318Z,5.42
2023-01-05T19:03:37.506Z,5.44
2023-01-05T19:06:08.606Z,5.41
2023-01-05T19:08:37.715Z,5.32
2023-01-05T19:11:12.436Z,5.29
2023-01-05T19:13:40.970Z,5.27
2023-01-05T19:16:09.278Z,5.25
2023-01-05T19:18:37.792Z,5.25
2023-01-05T19:21:05.983Z,5.24
2023-01-05T19:23:35.346Z,5.25
2023-01-05T19:26:04.019Z,5.25
2023-01-05T19:28:35.465Z,5.27
2023-01-05T19:31:08.542Z,5.23
2023-01-05T19:33:37.431Z,5.15
2023-01-05T19:36:07.231Z,5.02
2023-01-05T19:38:35.561Z,5.03
2023-01-05T19:41:08.764Z,4.99
2023-01-05T19:43:40.262Z,4.96
2023-01-05T19:46:12.877Z,4.92
2023-01-05T19:48:45.793Z,4.92
2023-01-05T19:51:14.835Z,4.87
2023-01-05T19:53:43.210Z,4.88
2023-01-05T19:56:16.609Z,4.81
2023-01-05T19:58:44.267Z,4.76
2023-01-05T20:01:13.720Z,4.73
2023-01-05T20:03:49.282Z,4.68
2023-01-05T20:06:22.321Z,4.71
2023-01-05T20:08:55.290Z,4.61
2023-01-05T20:11:44.965Z,4.44
2023-01-05T20:14:13.157Z,4.34
2023-01-05T20:16:42.537Z,4.28
2023-01-05T20:19:11.771Z,4.19
2023-01-05T20:21:43.551Z,4.14
2023-01-05T20:24:14.366Z,4.19
2023-01-05T20:26:46.533Z,4.20
2023-01-05T20:29:15.850Z,4.20
2023-01-05T20:31:45.421Z,4.15
2023-01-05T20:34:17.707Z,4.07
2023-01-05T20:36:46.249Z,4.04
2023-01-05T20:39:18.493Z,4.07
2023-01-05T20:41:48.508Z,4.09
2023-01-05T20:44:18.623Z,4.13
2023-01-05T20:46:47.300Z,4.17
2023-01-05T20:49:15.960Z,4.24
2023-01-05T20:51:46.213Z,4.25
2023-01-05T20:54:39.961Z,4.26
2023-01-05T20:57:09.035Z,4.26
2023-01-05T20:59:41.546Z,4.18
2023-01-05T21:02:24.221Z,4.22
2023-01-05T21:04:53.502Z,4.15
2023-01-05T21:07:22.034Z,4.11
2023-01-05T21:09:51.228Z,4.14
2023-01-05T21:12:20.406Z,4.14
2023-01-05T21:14:49.106Z,4.14
2023-01-05T21:17:18.410Z,4.08
2023-01-05T21:19:45.879Z,4.05
2023-01-05T21:22:14.734Z,4.07
2023-01-05T21:24:45.162Z,4.04
2023-01-05T21:27:14.618Z,4.02
2023-01-05T21:29:43.847Z,3.97
2023-01-05T21:32:12.363Z,3.88
2023-01-05T21:34:40.218Z,3.74
2023-01-05T21:37:07.708Z,3.65
2023-01-05T21:39:36.400Z,3.60
2023-01-05T21:42:22.664Z,3.52
2023-01-05T21:44:50.372Z,3.52
2023-01-05T21:47:18.318Z,3.46
2023-01-05T21:49:46.628Z,3.44
2023-01-05T21:52:32.935Z,3.43
2023-01-05T21:55:45.634Z,3.42
2023-01-05T21:58:13.075Z,3.43
2023-01-05T22:00:40.591Z,3.44
2023-01-05T22:03:11.451Z,3.49
2023-01-05T22:05:39.233Z,3.54
2023-01-05T22:08:06.846Z,3.56
2023-01-05T22:10:35.565Z,3.61
2023-01-05T22:13:05.793Z,3.61
2023-01-05T22:15:33.272Z,3.58
2023-01-05T22:18:00.783Z,3.53
2023-01-05T22:20:29.409Z,3.48
2023-01-05T22:22:56.874Z,3.44
2023-01-05T22:25:25.448Z,3.43
2023-01-05T22:27:53.720Z,3.38
2023-01-05T22:30:21.255Z,3.33
2023-01-05T22:32:49.570Z,3.30
2023-01-05T22:35:17.983Z,3.36
2023-01-05T22:37:46.747Z,3.37
2023-01-05T22:40:14.478Z,3.42
2023-01-05T22:42:43.107Z,3.40
2023-01-05T22:45:11.430Z,3.41
2023-01-05T22:47:39.079Z,3.35
2023-01-05T22:50:09.420Z,3.31
2023-01-05T22:52:37.385Z,3.29
2023-01-05T22:55:06.317Z,3.30
2023-01-05T22:57:34.828Z,3.26
2023-01-05T23:00:03.246Z,3.24
2023-01-05T23:02:30.736Z,3.30
2023-01-05T23:04:58.219Z,3.36
2023-01-05T23:07:25.704Z,3.43
2023-01-05T23:09:54.999Z,3.37
2023-01-05T23:12:23.507Z,3.41
2023-01-05T23:14:51.006Z,3.42
2023-01-05T23:17:18.448Z,3.36
2023-01-05T23:19:45.911Z,3.37
2023-01-05T23:22:14.989Z,3.42
2023-01-05T23:24:42.817Z,3.47
2023-01-05T23:27:11.169Z,3.51
2023-01-05T23:29:38.630Z,3.50
2023-01-05T23:32:07.477Z,3.46
2023-01-05T23:34:37.603Z,3.39
2023-01-05T23:37:06.131Z,3.34
2023-01-05T23:39:33.728Z,3.32
2023-01-05T23:42:01.320Z,3.30
2023-01-05T23:44:28.706Z,3.23
2023-01-05T23:46:56.354Z,3.23
2023-01-05T23:49:23.872Z,3.27
2023-01-05T23:51:52.016Z,3.24
2023-01-05T23:54:20.499Z,3.20
2023-01-05T23:56:48.815Z,3.11
2023-01-05T23:59:17.202Z,2.99
